createdAt,value
2018-03-31T00:00:51.278Z,89.30
2018-03-31T00:03:18.976Z,89.40
2018-03-31T00:05:46.702Z,89.40
2018-03-31T00:08:14.428Z,89.80
2018-03-31T00:10:42.152Z,90.00
2018-03-31T00:13:10.631Z,90.20
2018-03-31T00:15:39.142Z,90.20
2018-03-31T00:18:06.837Z,90.10
2018-03-31T00:20:34.563Z,90.30
2018-03-31T00:23:02.306Z,90.60
2018-03-31T00:25:30.044Z,90.60
2018-03-31T00:27:57.761Z,90.60
2018-03-31T00:30:25.491Z,90.50
2018-03-31T00:32:53.215Z,90.50
2018-03-31T00:35:20.919Z,90.50
2018-03-31T00:37:48.790Z,90.30
2018-03-31T00:40:16.528Z,90.20
2018-03-31T00:42:44.368Z,90.30
2018-03-31T00:45:12.089Z,90.30
2018-03-31T00:47:39.799Z,90.40
2018-03-31T00:50:07.524Z,90.30
2018-03-31T00:52:35.818Z,90.20
2018-03-31T00:55:03.536Z,90.20
2018-03-31T00:57:31.244Z,90.30
2018-03-31T00:59:58.957Z,90.70
2018-03-31T01:02:26.678Z,90.30
2018-03-31T01:04:54.384Z,90.40
2018-03-31T01:07:22.296Z,90.50
2018-03-31T01:09:50.007Z,90.60
2018-03-31T01:12:17.735Z,90.60
2018-03-31T01:14:46.201Z,91.30
2018-03-31T01:17:14.015Z,90.80
2018-03-31T01:19:41.738Z,91.10
2018-03-31T01:22:09.463Z,91.10
2018-03-31T01:24:37.195Z,91.20
2018-03-31T01:27:04.914Z,91.10
2018-03-31T01:29:32.622Z,91.00
2018-03-31T01:32:00.348Z,91.10
2018-03-31T01:34:28.055Z,91.10
2018-03-31T01:36:55.811Z,91.20
2018-03-31T01:39:23.523Z,91.20
2018-03-31T01:41:52.010Z,91.50
2018-03-31T01:44:19.739Z,91.50
2018-03-31T01:46:47.454Z,91.50
2018-03-31T01:49:15.938Z,91.60
2018-03-31T01:51:44.538Z,91.60
2018-03-31T01:54:12.267Z,91.50
2018-03-31T01:56:40.015Z,91.70
2018-03-31T01:59:07.737Z,91.70
2018-03-31T02:01:35.447Z,91.90
2018-03-31T02:04:03.152Z,91.60
2018-03-31T02:06:30.941Z,91.60
2018-03-31T02:08:58.596Z,91.60
2018-03-31T02:11:26.341Z,91.80
2018-03-31T02:13:54.086Z,91.90
2018-03-31T02:16:21.827Z,92.00
2018-03-31T02:18:50.320Z,92.50
2018-03-31T02:21:18.791Z,92.60
2018-03-31T02:23:47.406Z,92.80
2018-03-31T02:26:15.119Z,92.70
2018-03-31T02:28:42.856Z,92.70
2018-03-31T02:31:10.759Z,92.70
2018-03-31T02:33:38.470Z,92.60
2018-03-31T02:36:06.212Z,92.30
2018-03-31T02:38:33.959Z,92.20
2018-03-31T02:41:02.451Z,92.90
2018-03-31T02:43:30.163Z,92.50
2018-03-31T02:45:57.887Z,92.60
2018-03-31T02:48:25.600Z,92.40
2018-03-31T02:50:53.351Z,92.50
2018-03-31T02:53:21.052Z,92.70
2018-03-31T02:55:49.548Z,92.60
2018-03-31T02:58:17.260Z,92.60
2018-03-31T03:00:45.762Z,92.40
2018-03-31T03:03:13.452Z,92.40
2018-03-31T03:05:41.971Z,92.30
2018-03-31T03:08:09.838Z,92.30
2018-03-31T03:10:37.583Z,92.30
2018-03-31T03:13:05.296Z,92.80
2018-03-31T03:15:33.812Z,92.80
2018-03-31T03:18:01.256Z,92.70
2018-03-31T03:20:28.773Z,92.80
2018-03-31T03:22:56.322Z,93.00
2018-03-31T03:25:23.839Z,92.90
2018-03-31T03:27:51.318Z,92.80
2018-03-31T03:30:18.882Z,92.80
2018-03-31T03:32:47.115Z,92.90
2018-03-31T03:35:14.574Z,92.80
2018-03-31T03:37:42.043Z,93.00
2018-03-31T03:40:09.515Z,93.10
2018-03-31T03:42:37.747Z,93.30
2018-03-31T03:45:05.255Z,93.30
2018-03-31T03:47:32.752Z,93.50
2018-03-31T03:50:00.227Z,93.50
2018-03-31T03:52:27.694Z,93.60
2018-03-31T03:54:55.943Z,93.80
2018-03-31T03:57:23.420Z,93.60
2018-03-31T03:59:50.898Z,93.80
2018-03-31T04:02:19.138Z,93.80
2018-03-31T04:04:46.596Z,93.70
2018-03-31T04:07:14.080Z,93.60
2018-03-31T04:09:42.345Z,93.50
2018-03-31T04:12:09.808Z,93.50
2018-03-31T04:14:38.047Z,93.40
2018-03-31T04:17:05.538Z,93.40
2018-03-31T04:19:33.960Z,93.60
2018-03-31T04:22:01.548Z,93.60
2018-03-31T04:24:29.095Z,93.60
2018-03-31T04:26:56.630Z,93.80
2018-03-31T04:29:24.146Z,93.70
2018-03-31T04:31:51.649Z,93.90
2018-03-31T04:34:19.117Z,94.00
2018-03-31T04:36:46.579Z,94.00
2018-03-31T04:39:14.056Z,93.90
2018-03-31T04:41:41.514Z,93.90
2018-03-31T04:44:08.993Z,93.90
2018-03-31T04:46:37.235Z,93.90
2018-03-31T04:49:04.732Z,93.80
2018-03-31T04:51:32.195Z,94.00
2018-03-31T04:53:59.663Z,94.00
2018-03-31T04:56:27.178Z,93.90
2018-03-31T04:58:54.618Z,93.80
2018-03-31T05:01:22.096Z,93.50
2018-03-31T05:03:50.568Z,94.10
2018-03-31T05:06:18.240Z,94.10
2018-03-31T05:08:46.479Z,94.30
2018-03-31T05:11:13.947Z,94.30
2018-03-31T05:13:41.411Z,94.40
2018-03-31T05:16:08.880Z,94.40
2018-03-31T05:18:37.120Z,94.20
2018-03-31T05:21:04.651Z,94.10
2018-03-31T05:23:32.322Z,94.00
2018-03-31T05:25:59.795Z,93.90
2018-03-31T05:28:27.411Z,94.00
2018-03-31T05:30:54.912Z,93.80
2018-03-31T05:33:22.413Z,93.60
2018-03-31T05:35:50.641Z,93.50
2018-03-31T05:38:18.111Z,93.50
2018-03-31T05:40:45.577Z,93.40
2018-03-31T05:43:13.056Z,93.20
2018-03-31T05:45:41.483Z,93.00
2018-03-31T05:48:09.122Z,92.90
2018-03-31T05:50:36.655Z,93.00
2018-03-31T05:53:04.891Z,93.60
2018-03-31T05:55:32.349Z,93.60
2018-03-31T05:57:59.837Z,94.00
2018-03-31T06:00:28.156Z,94.40
2018-03-31T06:02:55.644Z,94.40
2018-03-31T06:05:23.189Z,94.60
2018-03-31T06:07:50.658Z,94.70
2018-03-31T06:10:18.156Z,94.70
2018-03-31T06:12:45.604Z,94.70
2018-03-31T06:15:13.099Z,94.70
2018-03-31T06:17:40.566Z,94.60
2018-03-31T06:20:08.097Z,94.60
2018-03-31T06:22:35.552Z,94.60
2018-03-31T06:25:03.045Z,94.60
2018-03-31T06:27:30.518Z,94.40
2018-03-31T06:29:58.755Z,94.40
2018-03-31T06:32:26.220Z,94.40
2018-03-31T06:34:53.709Z,94.50
2018-03-31T06:37:21.176Z,94.50
2018-03-31T06:39:49.569Z,94.80
2018-03-31T06:42:17.046Z,94.80
2018-03-31T06:44:44.698Z,94.90
2018-03-31T06:47:12.228Z,94.90
2018-03-31T06:49:40.470Z,94.80
2018-03-31T06:52:07.956Z,94.80
2018-03-31T06:54:36.179Z,94.80
2018-03-31T06:57:03.659Z,94.80
2018-03-31T06:59:31.144Z,94.80
2018-03-31T07:01:59.391Z,94.90
2018-03-31T07:04:26.860Z,94.90
2018-03-31T07:06:55.094Z,95.00
2018-03-31T07:09:22.556Z,94.90
2018-03-31T07:11:50.064Z,94.90
2018-03-31T07:14:18.281Z,94.80
2018-03-31T07:16:45.760Z,94.80
2018-03-31T07:19:13.269Z,94.60
2018-03-31T07:21:41.591Z,94.50
2018-03-31T07:24:09.066Z,94.50
2018-03-31T07:26:37.302Z,94.10
2018-03-31T07:29:04.771Z,94.10
2018-03-31T07:31:32.252Z,93.90
2018-03-31T07:33:59.712Z,93.70
2018-03-31T07:36:27.310Z,93.70
2018-03-31T07:38:54.783Z,93.00
2018-03-31T07:41:22.236Z,92.60
2018-03-31T07:43:49.835Z,92.20
2018-03-31T07:46:18.082Z,91.50
2018-03-31T07:48:45.566Z,91.50
2018-03-31T07:51:13.022Z,91.50
2018-03-31T07:53:41.341Z,91.20
2018-03-31T07:56:08.811Z,91.10
2018-03-31T07:58:36.523Z,91.20
2018-03-31T08:01:03.983Z,91.00
2018-03-31T08:03:32.224Z,90.40
2018-03-31T08:05:59.677Z,90.40
2018-03-31T08:08:27.153Z,90.10
2018-03-31T08:10:54.622Z,88.20
2018-03-31T08:13:22.123Z,88.20
2018-03-31T08:15:49.592Z,87.80
2018-03-31T08:18:17.092Z,85.90
2018-03-31T08:20:44.551Z,85.80
2018-03-31T08:23:12.476Z,86.30
2018-03-31T08:25:39.939Z,84.30
2018-03-31T08:28:07.455Z,83.80
2018-03-31T08:30:35.717Z,83.20
2018-03-31T08:33:03.151Z,83.20
2018-03-31T08:35:31.414Z,82.90
2018-03-31T08:37:58.895Z,82.60
2018-03-31T08:40:26.417Z,81.90
2018-03-31T08:42:53.903Z,82.10
2018-03-31T08:45:22.572Z,79.00
2018-03-31T08:47:50.016Z,79.00
2018-03-31T08:50:17.491Z,78.50
2018-03-31T08:52:45.732Z,77.10
2018-03-31T08:55:13.230Z,77.10
2018-03-31T08:57:40.673Z,76.90
2018-03-31T09:00:08.278Z,76.80
2018-03-31T09:02:35.888Z,76.20
2018-03-31T09:05:03.370Z,75.40
2018-03-31T09:07:30.852Z,72.90
2018-03-31T09:09:59.081Z,73.90
2018-03-31T09:12:27.343Z,72.00
2018-03-31T09:14:54.854Z,71.80
2018-03-31T09:17:23.092Z,69.60
2018-03-31T09:19:50.661Z,69.50
2018-03-31T09:22:18.893Z,69.30
2018-03-31T09:24:46.344Z,68.20
2018-03-31T09:27:13.876Z,65.10
2018-03-31T09:29:41.335Z,66.40
2018-03-31T09:32:08.806Z,63.60
2018-03-31T09:34:36.280Z,64.30
2018-03-31T09:37:03.913Z,65.40
2018-03-31T09:39:31.458Z,62.70
2018-03-31T09:41:58.903Z,62.50
2018-03-31T09:44:26.375Z,62.70
2018-03-31T09:46:53.846Z,61.60
2018-03-31T09:49:21.317Z,60.50
2018-03-31T09:51:48.887Z,59.60
2018-03-31T09:54:16.361Z,60.10
2018-03-31T09:56:44.613Z,59.50
2018-03-31T09:59:12.116Z,59.50
2018-03-31T10:01:39.599Z,59.30
2018-03-31T10:04:07.108Z,59.80
2018-03-31T10:06:35.421Z,60.20
2018-03-31T10:09:02.942Z,60.10
2018-03-31T10:11:31.167Z,56.00
2018-03-31T10:13:58.720Z,56.00
2018-03-31T10:16:26.179Z,56.10
2018-03-31T10:18:53.643Z,57.30
2018-03-31T10:21:21.130Z,55.90
2018-03-31T10:23:49.359Z,55.90
2018-03-31T10:26:16.864Z,55.30
2018-03-31T10:28:44.325Z,54.50
2018-03-31T10:31:12.740Z,54.40
2018-03-31T10:33:40.271Z,54.30
2018-03-31T10:36:08.791Z,56.80
2018-03-31T10:38:36.265Z,56.70
2018-03-31T10:41:03.762Z,55.40
2018-03-31T10:43:32.020Z,57.10
2018-03-31T10:45:59.499Z,56.90
2018-03-31T10:48:27.744Z,56.00
2018-03-31T10:50:55.257Z,55.90
2018-03-31T10:53:22.747Z,56.10
2018-03-31T10:55:50.213Z,55.30
2018-03-31T10:58:17.675Z,55.40
2018-03-31T11:00:45.150Z,55.90
2018-03-31T11:03:13.386Z,55.10
2018-03-31T11:05:40.839Z,54.90
2018-03-31T11:08:08.574Z,55.10
2018-03-31T11:10:36.076Z,55.00
2018-03-31T11:13:03.681Z,55.30
2018-03-31T11:15:31.143Z,54.00
2018-03-31T11:17:58.619Z,53.60
2018-03-31T11:20:26.075Z,55.10
2018-03-31T11:22:54.301Z,54.00
2018-03-31T11:25:22.555Z,54.30
2018-03-31T11:27:50.268Z,54.70
2018-03-31T11:30:17.925Z,53.90
2018-03-31T11:32:45.431Z,54.40
2018-03-31T11:35:13.226Z,53.80
2018-03-31T11:37:41.473Z,53.20
2018-03-31T11:40:08.947Z,53.10
2018-03-31T11:42:37.306Z,53.80
2018-03-31T11:45:04.783Z,53.70
2018-03-31T11:47:33.010Z,53.10
2018-03-31T11:50:00.475Z,53.20
2018-03-31T11:52:27.941Z,53.20
2018-03-31T11:54:55.456Z,53.90
2018-03-31T11:57:23.726Z,53.70
2018-03-31T11:59:52.016Z,54.00
2018-03-31T12:02:19.567Z,54.00
2018-03-31T12:04:47.041Z,54.10
2018-03-31T12:07:14.528Z,53.90
2018-03-31T12:09:42.009Z,52.80
2018-03-31T12:12:10.270Z,53.20
2018-03-31T12:14:37.712Z,53.20
2018-03-31T12:17:06.045Z,52.80
2018-03-31T12:19:33.519Z,52.80
2018-03-31T12:22:01.138Z,50.30
2018-03-31T12:24:28.614Z,50.60
2018-03-31T12:26:56.089Z,49.80
2018-03-31T12:29:23.620Z,49.70
2018-03-31T12:31:51.079Z,50.10
2018-03-31T12:34:18.535Z,50.00
2018-03-31T12:36:46.007Z,49.70
2018-03-31T12:39:13.467Z,50.30
2018-03-31T12:41:40.956Z,50.20
2018-03-31T12:44:08.396Z,49.50
2018-03-31T12:46:35.891Z,49.50
2018-03-31T12:49:03.387Z,49.10
2018-03-31T12:51:30.881Z,49.00
2018-03-31T12:53:58.355Z,49.00
2018-03-31T12:56:25.807Z,48.10
2018-03-31T12:58:54.030Z,49.60
2018-03-31T13:01:21.507Z,49.60
2018-03-31T13:03:49.118Z,49.30
2018-03-31T13:06:16.680Z,49.10
2018-03-31T13:08:44.340Z,48.90
2018-03-31T13:11:11.879Z,49.10
2018-03-31T13:13:40.124Z,48.70
2018-03-31T13:16:07.653Z,48.70
2018-03-31T13:18:35.842Z,49.10
2018-03-31T13:21:03.291Z,49.00
2018-03-31T13:23:30.856Z,48.10
2018-03-31T13:25:58.378Z,48.10
2018-03-31T13:28:26.031Z,48.60
2018-03-31T13:30:53.497Z,47.90
2018-03-31T13:33:20.970Z,47.90
2018-03-31T13:35:48.447Z,50.00
2018-03-31T13:38:15.923Z,48.10
2018-03-31T13:40:44.175Z,47.90
2018-03-31T13:43:11.636Z,47.90
2018-03-31T13:45:39.106Z,47.70
2018-03-31T13:48:06.572Z,45.80
2018-03-31T13:50:34.047Z,47.10
2018-03-31T13:53:01.516Z,46.30
2018-03-31T13:55:29.015Z,45.80
2018-03-31T13:57:56.536Z,46.40
2018-03-31T14:00:24.023Z,46.60
2018-03-31T14:02:51.513Z,45.00
2018-03-31T14:05:20.034Z,45.50
2018-03-31T14:07:47.545Z,45.10
2018-03-31T14:10:15.780Z,46.50
2018-03-31T14:12:43.365Z,46.40
2018-03-31T14:15:10.840Z,45.60
2018-03-31T14:17:39.050Z,46.20
2018-03-31T14:20:06.527Z,46.20
2018-03-31T14:22:34.024Z,46.30
2018-03-31T14:25:02.267Z,45.30
2018-03-31T14:27:29.724Z,45.20
2018-03-31T14:29:57.182Z,46.80
2018-03-31T14:32:24.682Z,47.70
2018-03-31T14:34:52.904Z,48.50
2018-03-31T14:37:20.406Z,48.40
2018-03-31T14:39:48.809Z,48.50
2018-03-31T14:42:17.060Z,48.60
2018-03-31T14:44:45.295Z,48.20
2018-03-31T14:47:12.771Z,48.10
2018-03-31T14:49:40.992Z,49.10
2018-03-31T14:52:08.456Z,48.50
2018-03-31T14:54:35.951Z,48.60
2018-03-31T14:57:03.465Z,48.70
2018-03-31T14:59:30.924Z,49.00
2018-03-31T15:01:58.408Z,48.80
2018-03-31T15:04:25.870Z,48.60
2018-03-31T15:06:53.340Z,48.90
2018-03-31T15:09:20.791Z,49.30
2018-03-31T15:11:48.289Z,49.70
2018-03-31T15:14:15.747Z,50.00
2018-03-31T15:16:43.273Z,50.20
2018-03-31T15:19:11.499Z,50.10
2018-03-31T15:21:38.990Z,49.80
2018-03-31T15:24:07.243Z,50.60
2018-03-31T15:26:34.703Z,50.50
2018-03-31T15:29:02.172Z,50.60
2018-03-31T15:31:29.642Z,50.20
2018-03-31T15:33:57.899Z,49.60
2018-03-31T15:36:25.367Z,49.50
2018-03-31T15:38:52.870Z,49.50
2018-03-31T15:41:20.317Z,50.10
2018-03-31T15:43:47.792Z,50.10
2018-03-31T15:46:15.254Z,50.00
2018-03-31T15:48:43.743Z,49.70
2018-03-31T15:51:11.272Z,49.50
2018-03-31T15:53:39.549Z,49.70
2018-03-31T15:56:07.844Z,50.00
2018-03-31T15:58:35.259Z,50.00
2018-03-31T16:01:02.842Z,50.30
2018-03-31T16:03:30.302Z,50.00
2018-03-31T16:05:57.794Z,50.30
2018-03-31T16:08:25.267Z,50.80
2018-03-31T16:10:53.524Z,50.60
2018-03-31T16:13:21.041Z,50.50
2018-03-31T16:15:49.263Z,51.00
2018-03-31T16:18:16.728Z,51.00
2018-03-31T16:20:44.980Z,51.40
2018-03-31T16:23:12.466Z,51.30
2018-03-31T16:25:40.736Z,51.40
2018-03-31T16:30:28.947Z,51.30
2018-03-31T16:32:56.503Z,51.60
2018-03-31T16:35:23.971Z,52.00
2018-03-31T16:37:51.447Z,52.10
2018-03-31T16:40:20.420Z,51.50
2018-03-31T16:42:47.885Z,51.50
2018-03-31T16:45:15.350Z,52.00
2018-03-31T16:47:42.978Z,52.70
2018-03-31T16:50:10.453Z,52.60
2018-03-31T16:52:38.080Z,51.60
2018-03-31T16:55:05.568Z,51.70
2018-03-31T16:57:33.047Z,51.60
2018-03-31T17:00:00.492Z,52.00
2018-03-31T17:02:29.476Z,51.60
2018-03-31T17:04:56.946Z,51.50
2018-03-31T17:07:24.655Z,51.60
2018-03-31T17:09:52.193Z,52.20
2018-03-31T17:12:20.431Z,53.50
2018-03-31T17:14:47.912Z,53.40
2018-03-31T17:17:16.143Z,53.40
2018-03-31T17:19:43.683Z,53.30
2018-03-31T17:22:11.179Z,53.50
2018-03-31T17:24:38.632Z,53.80
2018-03-31T17:27:06.241Z,54.00
2018-03-31T17:29:33.777Z,54.00
2018-03-31T17:32:01.270Z,53.90
2018-03-31T17:34:28.744Z,54.20
2018-03-31T17:36:56.239Z,54.40
2018-03-31T17:39:23.688Z,54.80
2018-03-31T17:41:51.917Z,56.00
2018-03-31T17:44:19.403Z,55.40
2018-03-31T17:46:46.862Z,55.50
2018-03-31T17:49:14.469Z,55.60
2018-03-31T17:51:41.829Z,55.50
2018-03-31T17:54:09.308Z,55.30
2018-03-31T17:56:36.770Z,55.30
2018-03-31T17:59:04.249Z,55.40
2018-03-31T18:01:31.759Z,55.40
2018-03-31T18:03:59.216Z,55.70
2018-03-31T18:06:26.709Z,55.40
2018-03-31T18:08:54.179Z,55.90
2018-03-31T18:11:21.652Z,55.90
2018-03-31T18:13:49.882Z,56.90
2018-03-31T18:16:17.376Z,56.30
2018-03-31T18:18:45.732Z,55.90
2018-03-31T18:21:13.197Z,55.80
2018-03-31T18:23:40.666Z,56.90
2018-03-31T18:26:08.904Z,60.00
2018-03-31T18:28:36.375Z,59.90
2018-03-31T18:31:05.342Z,62.30
2018-03-31T18:33:32.828Z,62.20
2018-03-31T18:36:00.280Z,63.50
2018-03-31T18:38:27.751Z,67.60
2018-03-31T18:40:56.058Z,74.90
2018-03-31T18:43:23.542Z,74.90
2018-03-31T18:45:51.098Z,75.60
2018-03-31T18:48:18.599Z,74.30
2018-03-31T18:50:46.827Z,79.30
2018-03-31T18:53:14.408Z,79.20
2018-03-31T18:55:41.864Z,80.00
2018-03-31T18:58:09.335Z,81.80
2018-03-31T19:00:37.556Z,82.80
2018-03-31T19:03:05.108Z,82.40
2018-03-31T19:05:32.612Z,81.80
2018-03-31T19:08:00.084Z,81.60
2018-03-31T19:10:28.320Z,84.90
2018-03-31T19:12:55.812Z,84.80
2018-03-31T19:15:24.095Z,86.30
2018-03-31T19:17:51.743Z,86.30
2018-03-31T19:20:19.302Z,88.90
2018-03-31T19:22:46.759Z,89.50
2018-03-31T19:25:14.363Z,89.50
2018-03-31T19:27:42.559Z,90.70
2018-03-31T19:30:10.043Z,90.70
2018-03-31T19:32:37.486Z,90.40
2018-03-31T19:35:04.973Z,90.00
2018-03-31T19:37:33.346Z,88.90
2018-03-31T19:40:01.587Z,90.10
2018-03-31T19:42:29.049Z,90.00
2018-03-31T19:44:56.530Z,89.50
2018-03-31T19:47:24.077Z,89.80
2018-03-31T19:49:51.492Z,89.90
2018-03-31T19:52:19.039Z,90.00
2018-03-31T19:54:46.503Z,90.40
2018-03-31T19:57:13.987Z,90.90
2018-03-31T19:59:41.435Z,90.90
2018-03-31T20:02:08.921Z,91.10
2018-03-31T20:04:36.413Z,91.60
2018-03-31T20:07:04.661Z,92.40
2018-03-31T20:09:32.956Z,92.70
2018-03-31T20:12:00.414Z,92.60
2018-03-31T20:14:27.879Z,92.70
2018-03-31T20:16:55.356Z,92.90
2018-03-31T20:19:22.785Z,93.00
2018-03-31T20:21:50.346Z,92.90
2018-03-31T20:24:18.731Z,93.60
2018-03-31T20:26:46.184Z,93.60
2018-03-31T20:29:13.703Z,93.20
2018-03-31T20:31:41.166Z,92.70
2018-03-31T20:34:08.626Z,93.10
2018-03-31T20:36:36.872Z,92.80
2018-03-31T20:39:04.384Z,92.70
2018-03-31T20:41:32.587Z,91.80
2018-03-31T20:44:00.059Z,91.70
2018-03-31T20:46:27.538Z,92.00
2018-03-31T20:48:55.771Z,93.30
2018-03-31T20:51:23.248Z,93.30
2018-03-31T20:53:50.707Z,93.90
2018-03-31T20:56:18.194Z,93.90
2018-03-31T20:58:45.686Z,93.90
2018-03-31T21:01:13.166Z,93.80
2018-03-31T21:03:40.640Z,94.20
2018-03-31T21:06:08.863Z,94.30
2018-03-31T21:08:36.331Z,94.00
2018-03-31T21:11:03.794Z,93.90
2018-03-31T21:13:31.269Z,93.40
2018-03-31T21:15:58.727Z,93.30
2018-03-31T21:18:26.205Z,93.50
2018-03-31T21:20:54.429Z,93.60
2018-03-31T21:23:21.897Z,93.60
2018-03-31T21:25:49.444Z,93.40
2018-03-31T21:28:17.606Z,93.30
2018-03-31T21:30:45.071Z,93.20
2018-03-31T21:33:12.532Z,93.30
2018-03-31T21:35:40.068Z,93.60
2018-03-31T21:38:07.467Z,93.70
2018-03-31T21:40:34.970Z,93.70
2018-03-31T21:43:03.179Z,93.80
2018-03-31T21:45:30.647Z,93.80
2018-03-31T21:47:58.111Z,93.60
2018-03-31T21:50:25.667Z,93.70
2018-03-31T21:52:53.146Z,93.60
2018-03-31T21:55:21.385Z,93.60
2018-03-31T21:57:48.866Z,93.60
2018-03-31T22:00:17.088Z,93.70
2018-03-31T22:02:44.553Z,93.60
2018-03-31T22:05:12.003Z,93.50
2018-03-31T22:07:39.472Z,93.20
2018-03-31T22:10:06.929Z,93.20
2018-03-31T22:12:34.403Z,93.20
2018-03-31T22:15:01.877Z,93.10
2018-03-31T22:17:29.333Z,93.10
2018-03-31T22:19:57.585Z,92.80
2018-03-31T22:22:25.055Z,92.70
2018-03-31T22:24:54.026Z,92.80
2018-03-31T22:27:21.484Z,92.70
2018-03-31T22:29:48.956Z,92.80
2018-03-31T22:32:16.419Z,92.70
2018-03-31T22:34:43.885Z,92.80
2018-03-31T22:37:12.151Z,93.00
2018-03-31T22:39:39.596Z,92.90
2018-03-31T22:42:07.056Z,92.80
2018-03-31T22:44:34.512Z,93.00
2018-03-31T22:47:01.979Z,93.10
2018-03-31T22:49:30.228Z,93.00
2018-03-31T22:51:57.676Z,92.90
2018-03-31T22:54:25.159Z,93.00
2018-03-31T22:56:52.608Z,93.10
2018-03-31T22:59:20.059Z,93.40
2018-03-31T23:01:47.536Z,93.20
2018-03-31T23:04:16.771Z,93.30
2018-03-31T23:06:44.513Z,93.30
2018-03-31T23:09:12.218Z,93.40
2018-03-31T23:11:40.722Z,93.50
2018-03-31T23:14:08.415Z,93.50
2018-03-31T23:16:36.156Z,93.60
2018-03-31T23:19:03.875Z,93.60
2018-03-31T23:21:32.362Z,93.90
2018-03-31T23:24:00.085Z,93.80
2018-03-31T23:26:27.826Z,93.90
2018-03-31T23:28:55.560Z,93.90
2018-03-31T23:31:24.102Z,94.20
2018-03-31T23:33:51.832Z,93.80
2018-03-31T23:36:19.567Z,93.80
2018-03-31T23:38:47.049Z,93.90
2018-03-31T23:41:15.290Z,94.00
2018-03-31T23:43:42.752Z,93.70
2018-03-31T23:46:10.223Z,93.70
2018-03-31T23:48:37.721Z,93.80
2018-03-31T23:51:05.214Z,94.20
2018-03-31T23:53:32.680Z,93.70
2018-03-31T23:56:00.146Z,93.80
2018-03-31T23:58:28.683Z,93.90
